DAL2839 KPHL-KBOS
Flight info
| Callsign | DAL2839 |
|---|---|
| Flight time | 0h 53m |
| Altitude | 23000 |
| Route | DITCH LUIGI HNNAH JFK ROBUC3 |
| Aircraft | B77L/H-SDE1E2E3FGHIJ2J3J4J5M1RWXY/LB1D1 |
Departure
| Time | 2026-05-06 00:16 |
|---|---|
| Airport | Philadelphia International Airport (KPHL) |
Arrival
| Time | 2026-05-06 01:09 |
|---|---|
| Airport | Boston Logan International Airport (KBOS) |
| Time | Latitude | Longitude | Altitude | Speed | Heading |
|---|---|---|---|---|---|
| 2026-05-06 00:00 | 39.87342 | -75.25099 | 26 ft | 0 kts | 296° |
| 2026-05-06 00:07 | 39.87341 | -75.25096 | 27 ft | 2 kts | 295° |
| 2026-05-06 00:08 | 39.87334 | -75.25076 | 25 ft | 2 kts | 292° |
| 2026-05-06 00:08 | 39.87329 | -75.25056 | 24 ft | 2 kts | 286° |
| 2026-05-06 00:08 | 39.87325 | -75.25035 | 25 ft | 2 kts | 276° |
| 2026-05-06 00:08 | 39.87325 | -75.25014 | 25 ft | 2 kts | 246° |
| 2026-05-06 00:09 | 39.87334 | -75.24997 | 25 ft | 2 kts | 213° |
| 2026-05-06 00:09 | 39.87337 | -75.24995 | 25 ft | 1 kts | 213° |
| 2026-05-06 00:09 | 39.87337 | -75.24994 | 25 ft | 0 kts | 213° |
| 2026-05-06 00:11 | 39.87329 | -75.24995 | 25 ft | 6 kts | 186° |
| 2026-05-06 00:12 | 39.87209 | -75.24964 | 26 ft | 22 kts | 163° |
| 2026-05-06 00:12 | 39.87123 | -75.24885 | 30 ft | 15 kts | 95° |
| 2026-05-06 00:12 | 39.87150 | -75.24731 | 26 ft | 23 kts | 76° |
| 2026-05-06 00:12 | 39.87192 | -75.24512 | 27 ft | 25 kts | 76° |
| 2026-05-06 00:13 | 39.87240 | -75.24275 | 27 ft | 28 kts | 76° |
| 2026-05-06 00:13 | 39.87289 | -75.24025 | 26 ft | 28 kts | 75° |
| 2026-05-06 00:13 | 39.87327 | -75.23837 | 26 ft | 2 kts | 74° |
| 2026-05-06 00:13 | 39.87329 | -75.23827 | 26 ft | 4 kts | 73° |
| 2026-05-06 00:14 | 39.87336 | -75.23778 | 26 ft | 0 kts | 94° |
| 2026-05-06 00:14 | 39.87329 | -75.23754 | 25 ft | 9 kts | 116° |
| 2026-05-06 00:14 | 39.87217 | -75.23698 | 29 ft | 28 kts | 164° |
| 2026-05-06 00:14 | 39.87060 | -75.23640 | 26 ft | 22 kts | 169° |
| 2026-05-06 00:15 | 39.86993 | -75.23573 | 26 ft | 10 kts | 94° |
| 2026-05-06 00:15 | 39.86994 | -75.23447 | 29 ft | 15 kts | 113° |
| 2026-05-06 00:15 | 39.86916 | -75.23428 | 27 ft | 14 kts | 214° |
| 2026-05-06 00:15 | 39.86874 | -75.23543 | 27 ft | 17 kts | 251° |
| 2026-05-06 00:16 | 39.86755 | -75.24137 | 31 ft | 121 kts | 256° |
| 2026-05-06 00:16 | 39.86496 | -75.25520 | 402 ft | 170 kts | 250° |
| 2026-05-06 00:16 | 39.86023 | -75.26880 | 1678 ft | 155 kts | 231° |
| 2026-05-06 00:16 | 39.85205 | -75.27743 | 2550 ft | 167 kts | 197° |
| 2026-05-06 00:17 | 39.83893 | -75.27490 | 2793 ft | 226 kts | 159° |
| 2026-05-06 00:17 | 39.82750 | -75.25791 | 3408 ft | 274 kts | 120° |
| 2026-05-06 00:17 | 39.82493 | -75.23279 | 4411 ft | 297 kts | 85° |
| 2026-05-06 00:17 | 39.83004 | -75.20643 | 5391 ft | 304 kts | 77° |
| 2026-05-06 00:18 | 39.83481 | -75.17925 | 6330 ft | 311 kts | 83° |
| 2026-05-06 00:18 | 39.83706 | -75.15130 | 7484 ft | 310 kts | 89° |
| 2026-05-06 00:18 | 39.83725 | -75.12325 | 8640 ft | 310 kts | 94° |
| 2026-05-06 00:18 | 39.83601 | -75.09512 | 9753 ft | 313 kts | 96° |
| 2026-05-06 00:19 | 39.83381 | -75.06656 | 10659 ft | 322 kts | 98° |
| 2026-05-06 00:19 | 39.83093 | -75.03653 | 11103 ft | 350 kts | 99° |
| 2026-05-06 00:19 | 39.82745 | -75.00427 | 11356 ft | 381 kts | 100° |
| 2026-05-06 00:19 | 39.82346 | -74.96908 | 12002 ft | 400 kts | 100° |
| 2026-05-06 00:20 | 39.81929 | -74.93300 | 13082 ft | 406 kts | 101° |
| 2026-05-06 00:20 | 39.81505 | -74.89650 | 14186 ft | 410 kts | 101° |
| 2026-05-06 00:20 | 39.81073 | -74.85952 | 15209 ft | 415 kts | 101° |
| 2026-05-06 00:20 | 39.80632 | -74.82182 | 16179 ft | 422 kts | 101° |
| 2026-05-06 00:21 | 39.80198 | -74.78425 | 17069 ft | 426 kts | 99° |
| 2026-05-06 00:21 | 39.80269 | -74.74531 | 17739 ft | 441 kts | 79° |
| 2026-05-06 00:21 | 39.81393 | -74.70779 | 18542 ft | 450 kts | 59° |
| 2026-05-06 00:21 | 39.83344 | -74.67596 | 19413 ft | 452 kts | 40° |
| 2026-05-06 00:22 | 39.85823 | -74.65066 | 20123 ft | 454 kts | 34° |
| 2026-05-06 00:22 | 39.88362 | -74.62652 | 20807 ft | 461 kts | 34° |
| 2026-05-06 00:22 | 39.90970 | -74.60182 | 21660 ft | 464 kts | 34° |
| 2026-05-06 00:22 | 39.93575 | -74.57680 | 22620 ft | 465 kts | 34° |
| 2026-05-06 00:23 | 39.96169 | -74.55151 | 22948 ft | 466 kts | 34° |
| 2026-05-06 00:23 | 39.98749 | -74.52603 | 22912 ft | 462 kts | 35° |
| 2026-05-06 00:23 | 40.01304 | -74.50064 | 22910 ft | 459 kts | 35° |
| 2026-05-06 00:23 | 40.03846 | -74.47536 | 22917 ft | 459 kts | 34° |
| 2026-05-06 00:24 | 40.06360 | -74.45039 | 22921 ft | 460 kts | 34° |
| 2026-05-06 00:24 | 40.08912 | -74.42504 | 22918 ft | 460 kts | 34° |
| 2026-05-06 00:24 | 40.11471 | -74.39963 | 22914 ft | 461 kts | 34° |
| 2026-05-06 00:24 | 40.14017 | -74.37432 | 22927 ft | 461 kts | 34° |
| 2026-05-06 00:25 | 40.16590 | -74.34873 | 22930 ft | 461 kts | 34° |
| 2026-05-06 00:25 | 40.19141 | -74.32331 | 22932 ft | 461 kts | 34° |
| 2026-05-06 00:25 | 40.21663 | -74.29815 | 22937 ft | 461 kts | 34° |
| 2026-05-06 00:25 | 40.24214 | -74.27267 | 22937 ft | 460 kts | 34° |
| 2026-05-06 00:26 | 40.26768 | -74.24714 | 22937 ft | 460 kts | 34° |
| 2026-05-06 00:26 | 40.29316 | -74.22165 | 22935 ft | 459 kts | 34° |
| 2026-05-06 00:26 | 40.31855 | -74.19622 | 22930 ft | 459 kts | 34° |
| 2026-05-06 00:26 | 40.34361 | -74.17109 | 22932 ft | 459 kts | 35° |
| 2026-05-06 00:27 | 40.36897 | -74.14565 | 22925 ft | 458 kts | 35° |
| 2026-05-06 00:27 | 40.39445 | -74.12005 | 22916 ft | 458 kts | 35° |
| 2026-05-06 00:27 | 40.41976 | -74.09461 | 22914 ft | 458 kts | 35° |
| 2026-05-06 00:27 | 40.44484 | -74.06932 | 22906 ft | 458 kts | 36° |
| 2026-05-06 00:28 | 40.46895 | -74.04171 | 22897 ft | 460 kts | 41° |
| 2026-05-06 00:28 | 40.49061 | -74.01144 | 22893 ft | 461 kts | 49° |
| 2026-05-06 00:28 | 40.51055 | -73.97833 | 22898 ft | 461 kts | 51° |
| 2026-05-06 00:28 | 40.52995 | -73.94517 | 22903 ft | 460 kts | 51° |
| 2026-05-06 00:29 | 40.54950 | -73.91174 | 22906 ft | 461 kts | 51° |
| 2026-05-06 00:29 | 40.56922 | -73.87831 | 22906 ft | 461 kts | 50° |
| 2026-05-06 00:29 | 40.58882 | -73.84533 | 22908 ft | 462 kts | 50° |
| 2026-05-06 00:29 | 40.60867 | -73.81206 | 22909 ft | 462 kts | 50° |
| 2026-05-06 00:30 | 40.62860 | -73.77863 | 22908 ft | 462 kts | 50° |
| 2026-05-06 00:30 | 40.64901 | -73.74593 | 22907 ft | 461 kts | 47° |
| 2026-05-06 00:30 | 40.67038 | -73.71444 | 22914 ft | 461 kts | 45° |
| 2026-05-06 00:30 | 40.69212 | -73.68342 | 22911 ft | 460 kts | 45° |
| 2026-05-06 00:31 | 40.71367 | -73.65271 | 22904 ft | 460 kts | 45° |
| 2026-05-06 00:31 | 40.73534 | -73.62152 | 22903 ft | 460 kts | 46° |
| 2026-05-06 00:31 | 40.75685 | -73.59024 | 22916 ft | 460 kts | 46° |
| 2026-05-06 00:31 | 40.77803 | -73.55920 | 22911 ft | 460 kts | 46° |
| 2026-05-06 00:32 | 40.79943 | -73.52771 | 22915 ft | 459 kts | 46° |
| 2026-05-06 00:32 | 40.82078 | -73.49628 | 22922 ft | 459 kts | 46° |
| 2026-05-06 00:32 | 40.84214 | -73.46482 | 22916 ft | 459 kts | 46° |
| 2026-05-06 00:32 | 40.86350 | -73.43336 | 22915 ft | 458 kts | 46° |
| 2026-05-06 00:33 | 40.88458 | -73.40227 | 22912 ft | 458 kts | 46° |
| 2026-05-06 00:33 | 40.90588 | -73.37082 | 22908 ft | 458 kts | 46° |
| 2026-05-06 00:33 | 40.92695 | -73.33969 | 22900 ft | 458 kts | 46° |
| 2026-05-06 00:33 | 40.94817 | -73.30830 | 22908 ft | 457 kts | 46° |
| 2026-05-06 00:34 | 40.96936 | -73.27691 | 22911 ft | 457 kts | 46° |
| 2026-05-06 00:34 | 40.99055 | -73.24550 | 22887 ft | 457 kts | 46° |
| 2026-05-06 00:34 | 41.01177 | -73.21399 | 22879 ft | 457 kts | 46° |
| 2026-05-06 00:34 | 41.03299 | -73.18246 | 22877 ft | 457 kts | 46° |
| 2026-05-06 00:35 | 41.05410 | -73.15105 | 22878 ft | 457 kts | 46° |
| 2026-05-06 00:35 | 41.07524 | -73.11957 | 22882 ft | 456 kts | 46° |
| 2026-05-06 00:35 | 41.09612 | -73.08845 | 22881 ft | 456 kts | 46° |
| 2026-05-06 00:35 | 41.11732 | -73.05681 | 22877 ft | 456 kts | 46° |
| 2026-05-06 00:36 | 41.13840 | -73.02532 | 22883 ft | 456 kts | 46° |
| 2026-05-06 00:36 | 41.15952 | -72.99373 | 22882 ft | 456 kts | 46° |
| 2026-05-06 00:36 | 41.18036 | -72.96254 | 22901 ft | 456 kts | 46° |
| 2026-05-06 00:36 | 41.20146 | -72.93093 | 22916 ft | 456 kts | 46° |
| 2026-05-06 00:37 | 41.22066 | -72.89748 | 22892 ft | 456 kts | 58° |
| 2026-05-06 00:37 | 41.23571 | -72.86024 | 22916 ft | 456 kts | 62° |
| 2026-05-06 00:37 | 41.24573 | -72.83291 | 22894 ft | 453 kts | 63° |
| 2026-05-06 00:37 | 41.25934 | -72.79484 | 22654 ft | 458 kts | 63° |
| 2026-05-06 00:38 | 41.27304 | -72.75679 | 22469 ft | 455 kts | 63° |
| 2026-05-06 00:38 | 41.28688 | -72.71910 | 22327 ft | 451 kts | 63° |
| 2026-05-06 00:38 | 41.30074 | -72.68205 | 22247 ft | 451 kts | 62° |
| 2026-05-06 00:38 | 41.31493 | -72.64455 | 22150 ft | 451 kts | 62° |
| 2026-05-06 00:39 | 41.32892 | -72.60777 | 22042 ft | 451 kts | 62° |
| 2026-05-06 00:39 | 41.34309 | -72.57053 | 21945 ft | 451 kts | 62° |
| 2026-05-06 00:39 | 41.35729 | -72.53318 | 21845 ft | 451 kts | 62° |
| 2026-05-06 00:39 | 41.37147 | -72.49580 | 21728 ft | 451 kts | 62° |
| 2026-05-06 00:40 | 41.38564 | -72.45839 | 21623 ft | 451 kts | 62° |
| 2026-05-06 00:40 | 41.39973 | -72.42109 | 21524 ft | 450 kts | 62° |
| 2026-05-06 00:40 | 41.41381 | -72.38377 | 21415 ft | 450 kts | 62° |
| 2026-05-06 00:40 | 41.42769 | -72.34694 | 21307 ft | 450 kts | 62° |
| 2026-05-06 00:41 | 41.44173 | -72.30964 | 21211 ft | 449 kts | 62° |
| 2026-05-06 00:41 | 41.45576 | -72.27231 | 21100 ft | 449 kts | 62° |
| 2026-05-06 00:41 | 41.46974 | -72.23508 | 20977 ft | 448 kts | 62° |
| 2026-05-06 00:41 | 41.48370 | -72.19782 | 20822 ft | 449 kts | 63° |
| 2026-05-06 00:42 | 41.49742 | -72.16060 | 20508 ft | 451 kts | 63° |
| 2026-05-06 00:42 | 41.51105 | -72.12320 | 20183 ft | 445 kts | 63° |
| 2026-05-06 00:42 | 41.52452 | -72.08619 | 19880 ft | 440 kts | 63° |
| 2026-05-06 00:42 | 41.53785 | -72.04963 | 19573 ft | 437 kts | 63° |
| 2026-05-06 00:43 | 41.55116 | -72.01314 | 19275 ft | 436 kts | 63° |
| 2026-05-06 00:43 | 41.56374 | -71.97694 | 18982 ft | 434 kts | 67° |
| 2026-05-06 00:43 | 41.57489 | -71.93946 | 18683 ft | 433 kts | 69° |
| 2026-05-06 00:43 | 41.58574 | -71.90167 | 18406 ft | 433 kts | 69° |
| 2026-05-06 00:44 | 41.59669 | -71.86424 | 18088 ft | 432 kts | 69° |
| 2026-05-06 00:44 | 41.60758 | -71.82740 | 17757 ft | 430 kts | 68° |
| 2026-05-06 00:44 | 41.61862 | -71.79006 | 17441 ft | 428 kts | 68° |
| 2026-05-06 00:44 | 41.62955 | -71.75306 | 17117 ft | 426 kts | 68° |
| 2026-05-06 00:45 | 41.64040 | -71.71628 | 16831 ft | 424 kts | 69° |
| 2026-05-06 00:45 | 41.65114 | -71.67978 | 16539 ft | 415 kts | 69° |
| 2026-05-06 00:45 | 41.66145 | -71.64471 | 16253 ft | 405 kts | 69° |
| 2026-05-06 00:45 | 41.67158 | -71.61021 | 15978 ft | 394 kts | 69° |
| 2026-05-06 00:46 | 41.68150 | -71.57639 | 15716 ft | 384 kts | 69° |
| 2026-05-06 00:46 | 41.69100 | -71.54392 | 15540 ft | 371 kts | 69° |
| 2026-05-06 00:46 | 41.70035 | -71.51195 | 15227 ft | 365 kts | 69° |
| 2026-05-06 00:46 | 41.70947 | -71.48073 | 14967 ft | 358 kts | 69° |
| 2026-05-06 00:47 | 41.71847 | -71.44984 | 14848 ft | 351 kts | 69° |
| 2026-05-06 00:47 | 41.72783 | -71.41962 | 14615 ft | 352 kts | 63° |
| 2026-05-06 00:47 | 41.73966 | -71.39116 | 14371 ft | 353 kts | 58° |
| 2026-05-06 00:47 | 41.75247 | -71.36305 | 14143 ft | 355 kts | 58° |
| 2026-05-06 00:48 | 41.76520 | -71.33453 | 13893 ft | 356 kts | 59° |
| 2026-05-06 00:48 | 41.77763 | -71.30583 | 13629 ft | 355 kts | 59° |
| 2026-05-06 00:48 | 41.78981 | -71.27731 | 13352 ft | 351 kts | 59° |
| 2026-05-06 00:48 | 41.80186 | -71.24900 | 13117 ft | 347 kts | 59° |
| 2026-05-06 00:49 | 41.81379 | -71.22093 | 12869 ft | 343 kts | 59° |
| 2026-05-06 00:49 | 41.82545 | -71.19354 | 12624 ft | 340 kts | 59° |
| 2026-05-06 00:49 | 41.83712 | -71.16609 | 12396 ft | 338 kts | 59° |
| 2026-05-06 00:49 | 41.84877 | -71.13864 | 12166 ft | 337 kts | 59° |
| 2026-05-06 00:50 | 41.86038 | -71.11137 | 11947 ft | 333 kts | 59° |
| 2026-05-06 00:50 | 41.86803 | -71.09362 | 11813 ft | 330 kts | 59° |
| 2026-05-06 00:50 | 41.87953 | -71.06706 | 11615 ft | 327 kts | 59° |
| 2026-05-06 00:50 | 41.89470 | -71.03203 | 11374 ft | 326 kts | 59° |
| 2026-05-06 00:51 | 41.90243 | -71.01414 | 11222 ft | 326 kts | 59° |
| 2026-05-06 00:51 | 41.91378 | -70.98786 | 11040 ft | 326 kts | 59° |
| 2026-05-06 00:51 | 41.92512 | -70.96157 | 10841 ft | 325 kts | 59° |
| 2026-05-06 00:51 | 41.93630 | -70.93560 | 10647 ft | 325 kts | 59° |
| 2026-05-06 00:52 | 41.94760 | -70.90933 | 10448 ft | 325 kts | 59° |
| 2026-05-06 00:52 | 41.95891 | -70.88301 | 10251 ft | 324 kts | 59° |
| 2026-05-06 00:52 | 41.97010 | -70.85694 | 10051 ft | 318 kts | 59° |
| 2026-05-06 00:52 | 41.98105 | -70.83141 | 9848 ft | 312 kts | 59° |
| 2026-05-06 00:53 | 41.99171 | -70.80654 | 9659 ft | 308 kts | 59° |
| 2026-05-06 00:53 | 42.00238 | -70.78163 | 9468 ft | 306 kts | 59° |
| 2026-05-06 00:53 | 42.01336 | -70.75722 | 9254 ft | 302 kts | 52° |
| 2026-05-06 00:53 | 42.02689 | -70.73561 | 9086 ft | 303 kts | 45° |
| 2026-05-06 00:54 | 42.04148 | -70.71494 | 8928 ft | 307 kts | 44° |
| 2026-05-06 00:54 | 42.05619 | -70.69393 | 8713 ft | 309 kts | 45° |
| 2026-05-06 00:54 | 42.07074 | -70.67256 | 8535 ft | 309 kts | 46° |
| 2026-05-06 00:54 | 42.08516 | -70.65107 | 8335 ft | 308 kts | 46° |
| 2026-05-06 00:55 | 42.09936 | -70.62998 | 8149 ft | 304 kts | 42° |
| 2026-05-06 00:55 | 42.11653 | -70.61422 | 7909 ft | 295 kts | 15° |
| 2026-05-06 00:55 | 42.13610 | -70.60760 | 7664 ft | 289 kts | 5° |
| 2026-05-06 00:55 | 42.15595 | -70.60232 | 7398 ft | 292 kts | 5° |
| 2026-05-06 00:56 | 42.17606 | -70.59696 | 7125 ft | 296 kts | 5° |
| 2026-05-06 00:56 | 42.19624 | -70.59150 | 6841 ft | 293 kts | 5° |
| 2026-05-06 00:56 | 42.21588 | -70.58609 | 6556 ft | 288 kts | 5° |
| 2026-05-06 00:56 | 42.23542 | -70.58068 | 6284 ft | 285 kts | 5° |
| 2026-05-06 00:57 | 42.25496 | -70.57527 | 6004 ft | 287 kts | 5° |
| 2026-05-06 00:57 | 42.27465 | -70.56979 | 5732 ft | 289 kts | 5° |
| 2026-05-06 00:57 | 42.29413 | -70.56435 | 5458 ft | 291 kts | 5° |
| 2026-05-06 00:57 | 42.31377 | -70.56043 | 5164 ft | 278 kts | 349° |
| 2026-05-06 00:58 | 42.33143 | -70.56688 | 5074 ft | 253 kts | 323° |
| 2026-05-06 00:58 | 42.34554 | -70.58024 | 5049 ft | 244 kts | 310° |
| 2026-05-06 00:58 | 42.35784 | -70.59590 | 5050 ft | 247 kts | 307° |
| 2026-05-06 00:58 | 42.37008 | -70.61225 | 5037 ft | 247 kts | 307° |
| 2026-05-06 00:59 | 42.38231 | -70.62865 | 5010 ft | 247 kts | 307° |
| 2026-05-06 00:59 | 42.39455 | -70.64500 | 5002 ft | 246 kts | 307° |
| 2026-05-06 00:59 | 42.40659 | -70.66103 | 5007 ft | 245 kts | 307° |
| 2026-05-06 00:59 | 42.41881 | -70.67723 | 5006 ft | 246 kts | 307° |
| 2026-05-06 01:00 | 42.43104 | -70.69343 | 4969 ft | 244 kts | 307° |
| 2026-05-06 01:00 | 42.44340 | -70.70918 | 4747 ft | 244 kts | 311° |
| 2026-05-06 01:00 | 42.45681 | -70.72361 | 4339 ft | 247 kts | 313° |
| 2026-05-06 01:00 | 42.47047 | -70.73773 | 3921 ft | 246 kts | 314° |
| 2026-05-06 01:01 | 42.48395 | -70.75158 | 3571 ft | 245 kts | 314° |
| 2026-05-06 01:01 | 42.49763 | -70.76560 | 3169 ft | 245 kts | 314° |
| 2026-05-06 01:01 | 42.51137 | -70.77957 | 3036 ft | 250 kts | 313° |
| 2026-05-06 01:01 | 42.52532 | -70.79371 | 3014 ft | 246 kts | 310° |
| 2026-05-06 01:02 | 42.53760 | -70.80885 | 3018 ft | 237 kts | 306° |
| 2026-05-06 01:02 | 42.54909 | -70.82389 | 3007 ft | 222 kts | 305° |
| 2026-05-06 01:02 | 42.56003 | -70.83806 | 2994 ft | 213 kts | 305° |
| 2026-05-06 01:02 | 42.57076 | -70.85191 | 3018 ft | 212 kts | 305° |
| 2026-05-06 01:03 | 42.58137 | -70.86577 | 3021 ft | 214 kts | 305° |
| 2026-05-06 01:03 | 42.59115 | -70.88054 | 3005 ft | 202 kts | 288° |
| 2026-05-06 01:03 | 42.59336 | -70.89806 | 3023 ft | 186 kts | 253° |
| 2026-05-06 01:03 | 42.58660 | -70.91241 | 3025 ft | 187 kts | 219° |
| 2026-05-06 01:04 | 42.57392 | -70.91765 | 3022 ft | 200 kts | 191° |
| 2026-05-06 01:04 | 42.56005 | -70.91860 | 3023 ft | 201 kts | 194° |
| 2026-05-06 01:04 | 42.54607 | -70.92147 | 3021 ft | 201 kts | 200° |
| 2026-05-06 01:04 | 42.53284 | -70.92544 | 3002 ft | 184 kts | 202° |
| 2026-05-06 01:05 | 42.52130 | -70.92957 | 2979 ft | 162 kts | 206° |
| 2026-05-06 01:05 | 42.51082 | -70.93428 | 2821 ft | 158 kts | 208° |
| 2026-05-06 01:05 | 42.50072 | -70.93910 | 2669 ft | 148 kts | 208° |
| 2026-05-06 01:05 | 42.49165 | -70.94348 | 2471 ft | 131 kts | 208° |
| 2026-05-06 01:06 | 42.48377 | -70.94729 | 2308 ft | 111 kts | 209° |
| 2026-05-06 01:06 | 42.47641 | -70.95091 | 2143 ft | 116 kts | 210° |
| 2026-05-06 01:06 | 42.46880 | -70.95465 | 2006 ft | 117 kts | 210° |
| 2026-05-06 01:06 | 42.46131 | -70.95829 | 1853 ft | 114 kts | 210° |
| 2026-05-06 01:07 | 42.45381 | -70.96200 | 1691 ft | 115 kts | 210° |
| 2026-05-06 01:07 | 42.44628 | -70.96569 | 1506 ft | 116 kts | 207° |
| 2026-05-06 01:07 | 42.43862 | -70.96939 | 1336 ft | 121 kts | 208° |
| 2026-05-06 01:07 | 42.43057 | -70.97332 | 1220 ft | 124 kts | 206° |
| 2026-05-06 01:08 | 42.42229 | -70.97730 | 1033 ft | 128 kts | 204° |
| 2026-05-06 01:08 | 42.41391 | -70.98138 | 842 ft | 134 kts | 202° |
| 2026-05-06 01:08 | 42.40493 | -70.98575 | 737 ft | 140 kts | 202° |
| 2026-05-06 01:08 | 42.39579 | -70.99015 | 543 ft | 138 kts | 201° |
| 2026-05-06 01:09 | 42.38669 | -70.99461 | 406 ft | 139 kts | 199° |
| 2026-05-06 01:09 | 42.37740 | -70.99906 | 195 ft | 147 kts | 200° |
| 2026-05-06 01:09 | 42.36815 | -71.00358 | 30 ft | 113 kts | 199° |
| 2026-05-06 01:09 | 42.36434 | -71.00551 | 30 ft | 22 kts | 215° |
| 2026-05-06 01:10 | 42.36425 | -71.00740 | 29 ft | 22 kts | 291° |
| 2026-05-06 01:10 | 42.36447 | -71.00817 | 30 ft | 0 kts | 291° |
| 2026-05-06 01:10 | 42.36463 | -71.00872 | 30 ft | 24 kts | 293° |
| 2026-05-06 01:10 | 42.36550 | -71.01155 | 30 ft | 24 kts | 291° |
| 2026-05-06 01:11 | 42.36573 | -71.01278 | 30 ft | 15 kts | 252° |
| 2026-05-06 01:11 | 42.36556 | -71.01307 | 30 ft | 0 kts | 214° |
| 2026-05-06 01:12 | 42.36532 | -71.01324 | 30 ft | 15 kts | 208° |
| 2026-05-06 01:12 | 42.36382 | -71.01410 | 30 ft | 26 kts | 200° |
| 2026-05-06 01:12 | 42.36213 | -71.01489 | 30 ft | 26 kts | 199° |
| 2026-05-06 01:13 | 42.36045 | -71.01570 | 30 ft | 26 kts | 200° |
| 2026-05-06 01:13 | 42.35911 | -71.01665 | 30 ft | 18 kts | 245° |
| 2026-05-06 01:13 | 42.35927 | -71.01826 | 30 ft | 18 kts | 290° |
| 2026-05-06 01:13 | 42.35986 | -71.01974 | 30 ft | 18 kts | 301° |
| 2026-05-06 01:14 | 42.36148 | -71.02288 | 30 ft | 19 kts | 309° |
| 2026-05-06 01:14 | 42.36182 | -71.02414 | 30 ft | 8 kts | 282° |
| 2026-05-06 01:14 | 42.36185 | -71.02428 | 30 ft | 0 kts | 283° |